Time;durP1;ratioP1;P1;durP2;ratioP2;P2;SDS_P1;SDS_P2;PMS_P1;PMS_P2;Temp;Humidity;BMP_temperature;BMP_pressure;BME280_temperature;BME280_humidity;BME280_pressure;Samples;Min_cycle;Max_cycle;Signal;HPM_P1;HPM_P2
2021/10/27 00:00:50;;;;;;;7.28;3.53;;;;;;;1.04;100.00;93928.97;2107708;28;20027;-90
2021/10/27 00:01:51;;;;;;;4.43;3.28;;;;;;;1.02;100.00;93921.44;2106891;28;20036;-87
2021/10/27 00:02:52;;;;;;;6.75;3.63;;;;;;;0.98;100.00;93926.59;2099165;28;20472;-88
2021/10/27 00:03:53;;;;;;;6.53;3.92;;;;;;;0.96;100.00;93926.16;2098269;28;20037;-86
2021/10/27 00:04:56;;;;;;;5.65;3.47;;;;;;;1.03;100.00;93919.56;2100700;28;20031;-86
2021/10/27 00:06:00;;;;;;;4.20;3.45;;;;;;;1.04;100.00;93928.97;2112025;27;20031;-87
2021/10/27 00:07:06;;;;;;;7.70;3.55;;;;;;;1.03;100.00;93927.47;2109362;28;20016;-88
2021/10/27 00:08:08;;;;;;;5.30;3.60;;;;;;;1.00;100.00;93929.66;2097241;28;20130;-87
2021/10/27 00:09:09;;;;;;;4.38;3.38;;;;;;;0.92;100.00;93940.31;2107307;28;20020;-93
2021/10/27 00:10:11;;;;;;;4.68;4.10;;;;;;;0.88;100.00;93932.34;2098914;28;20059;-89
2021/10/27 00:11:12;;;;;;;4.72;3.60;;;;;;;0.89;100.00;93936.50;2107584;28;20024;-89
2021/10/27 00:12:15;;;;;;;5.65;3.95;;;;;;;0.92;100.00;93927.94;2098994;28;20023;-90
2021/10/27 00:13:16;;;;;;;8.15;3.65;;;;;;;0.92;100.00;93929.78;2091365;28;20024;-87
2021/10/27 00:14:17;;;;;;;4.65;3.35;;;;;;;1.00;100.00;93936.78;2096533;28;20024;-89
2021/10/27 00:15:19;;;;;;;4.45;3.47;;;;;;;0.99;100.00;93925.50;2098992;28;20119;-91
2021/10/27 00:16:20;;;;;;;4.95;3.58;;;;;;;0.95;100.00;93929.13;2107427;28;20473;-86
2021/10/27 00:17:21;;;;;;;4.18;3.75;;;;;;;0.90;100.00;93927.50;2090598;28;20033;-88
2021/10/27 00:18:21;;;;;;;6.43;3.22;;;;;;;0.90;100.00;93924.09;2090532;28;20036;-90
2021/10/27 00:19:22;;;;;;;4.47;3.25;;;;;;;1.00;100.00;93924.38;2107195;28;20098;-89
2021/10/27 00:20:23;;;;;;;4.28;3.88;;;;;;;0.96;100.00;93925.38;2090476;28;20029;-89
2021/10/27 00:21:24;;;;;;;6.78;3.55;;;;;;;0.92;100.00;93925.31;2090652;28;20021;-87
2021/10/27 00:22:25;;;;;;;7.15;3.63;;;;;;;0.84;100.00;93923.56;2098873;28;20020;-91
2021/10/27 00:23:27;;;;;;;3.63;3.30;;;;;;;0.82;100.00;93925.75;2098703;28;20020;-88
2021/10/27 00:24:27;;;;;;;3.80;3.13;;;;;;;0.79;100.00;93926.44;2092136;28;20032;-90
2021/10/27 00:25:29;;;;;;;6.63;3.47;;;;;;;0.85;100.00;93919.06;2098902;28;20020;-91
2021/10/27 00:26:30;;;;;;;4.45;3.60;;;;;;;0.80;100.00;93922.72;2115028;28;20028;-90
2021/10/27 00:27:31;;;;;;;4.68;3.33;;;;;;;0.84;100.00;93923.56;2098758;28;20112;-90
2021/10/27 00:28:32;;;;;;;5.25;3.53;;;;;;;0.84;100.00;93922.81;2083551;28;20841;-89
2021/10/27 00:29:35;;;;;;;5.32;3.50;;;;;;;0.83;100.00;93922.03;2090611;28;20390;-92
2021/10/27 00:30:36;;;;;;;5.00;3.40;;;;;;;0.82;100.00;93920.50;2106942;28;20028;-91
2021/10/27 00:31:37;;;;;;;5.13;3.30;;;;;;;0.72;100.00;93916.47;2098658;28;20048;-86
2021/10/27 00:32:38;;;;;;;8.38;3.30;;;;;;;0.67;100.00;93921.97;2082363;28;20031;-86
2021/10/27 00:33:40;;;;;;;3.58;3.03;;;;;;;0.57;100.00;93914.56;2087039;28;20513;-90
2021/10/27 00:34:41;;;;;;;5.55;3.60;;;;;;;0.60;100.00;93924.38;2090579;28;20112;-89
2021/10/27 00:35:42;;;;;;;3.45;3.15;;;;;;;0.58;100.00;93925.84;2098718;28;20055;-90
2021/10/27 00:36:43;;;;;;;3.78;3.15;;;;;;;0.61;100.00;93925.91;2098879;28;20024;-91
2021/10/27 00:37:44;;;;;;;4.35;3.38;;;;;;;0.71;100.00;93922.09;2107009;28;20024;-90
2021/10/27 00:38:45;;;;;;;5.20;3.30;;;;;;;0.75;100.00;93925.59;2107112;28;20028;-89
2021/10/27 00:39:47;;;;;;;3.78;3.30;;;;;;;0.78;100.00;93917.00;2106965;28;20027;-92
2021/10/27 00:40:48;;;;;;;4.05;3.40;;;;;;;0.78;100.00;93924.91;2098820;28;20048;-88
2021/10/27 00:41:49;;;;;;;4.57;3.17;;;;;;;0.76;100.00;93924.47;2090960;28;20017;-90
2021/10/27 00:42:50;;;;;;;5.72;3.75;;;;;;;0.73;100.00;93928.53;2106990;28;20027;-91
2021/10/27 00:43:52;;;;;;;4.20;3.22;;;;;;;0.70;100.00;93917.91;2106910;28;20054;-88
2021/10/27 00:44:53;;;;;;;4.38;3.47;;;;;;;0.70;100.00;93921.31;2107046;28;20389;-90
2021/10/27 00:45:54;;;;;;;3.88;2.97;;;;;;;0.69;100.00;93919.75;2098337;28;20025;-87
2021/10/27 00:47:03;;;;;;;6.18;3.65;;;;;;;0.64;100.00;93927.88;2090463;28;20061;-89
2021/10/27 00:48:04;;;;;;;3.55;3.25;;;;;;;0.70;100.00;93926.59;2086083;28;20025;-86
2021/10/27 00:49:05;;;;;;;5.15;3.38;;;;;;;0.72;100.00;93923.59;2098852;28;20020;-91
2021/10/27 00:50:07;;;;;;;5.07;3.55;;;;;;;0.78;100.00;93930.16;2089332;28;20477;-90
2021/10/27 00:51:08;;;;;;;4.40;3.30;;;;;;;0.75;100.00;93926.34;2091542;28;20023;-89
2021/10/27 00:52:11;;;;;;;6.95;3.10;;;;;;;0.73;100.00;93919.88;2103957;28;20005;-86
2021/10/27 00:53:13;;;;;;;4.35;3.20;;;;;;;0.72;100.00;93920.97;2100736;28;20013;-89
2021/10/27 00:54:14;;;;;;;4.20;2.90;;;;;;;0.73;100.00;93915.38;2101443;28;20500;-90
2021/10/27 00:55:15;;;;;;;6.53;3.47;;;;;;;0.65;100.00;93921.53;2115700;28;20045;-91
2021/10/27 00:56:17;;;;;;;4.10;3.08;;;;;;;0.57;100.00;93919.03;2106874;28;20020;-88
2021/10/27 00:57:25;;;;;;;4.68;2.90;;;;;;;0.60;100.00;93918.38;2098918;28;20083;-88
2021/10/27 00:58:26;;;;;;;3.35;2.97;;;;;;;0.56;100.00;93928.03;2099260;28;20424;-91
2021/10/27 00:59:28;;;;;;;4.80;3.25;;;;;;;0.50;100.00;93922.22;2090541;28;20039;-88
2021/10/27 01:00:29;;;;;;;4.43;3.40;;;;;;;0.60;100.00;93931.53;2087885;28;20163;-91
2021/10/27 01:01:30;;;;;;;4.90;3.00;;;;;;;0.63;100.00;93934.25;2090406;28;20036;-87
2021/10/27 01:02:31;;;;;;;4.00;3.40;;;;;;;0.60;100.00;93924.38;2092511;28;20024;-89
2021/10/27 01:03:37;;;;;;;5.07;2.78;;;;;;;0.62;100.00;93921.44;2091785;28;20021;-89
2021/10/27 01:04:41;;;;;;;5.00;3.00;;;;;;;0.62;100.00;93927.47;2091550;28;20032;-89
2021/10/27 01:05:42;;;;;;;3.92;2.90;;;;;;;0.65;100.00;93920.75;2099227;28;20020;-87
2021/10/27 01:06:44;;;;;;;3.60;3.30;;;;;;;0.67;100.00;93918.59;2098518;28;20039;-90
2021/10/27 01:07:46;;;;;;;4.32;3.20;;;;;;;0.65;100.00;93921.53;2098778;28;20028;-90
2021/10/27 01:08:47;;;;;;;4.45;3.10;;;;;;;0.63;100.00;93922.97;2106496;28;20676;-88
2021/10/27 01:09:48;;;;;;;4.03;3.25;;;;;;;0.56;100.00;93923.53;2115303;27;20082;-89
2021/10/27 01:10:49;;;;;;;3.47;3.17;;;;;;;0.57;100.00;93925.06;2104362;28;20360;-92
2021/10/27 01:11:51;;;;;;;3.15;2.88;;;;;;;0.60;100.00;93928.88;2098732;28;20112;-87
2021/10/27 01:12:52;;;;;;;4.07;3.22;;;;;;;0.65;100.00;93926.03;2099174;28;20054;-88
2021/10/27 01:13:53;;;;;;;3.78;3.15;;;;;;;0.58;100.00;93933.72;2115417;28;20035;-89
2021/10/27 01:14:54;;;;;;;5.38;3.22;;;;;;;0.67;100.00;93929.88;2118234;27;20026;-89
2021/10/27 01:15:55;;;;;;;4.32;3.05;;;;;;;0.66;100.00;93922.28;2107010;28;20120;-87
2021/10/27 01:16:56;;;;;;;4.95;3.05;;;;;;;0.66;100.00;93924.91;2095480;28;20074;-91
2021/10/27 01:17:57;;;;;;;5.30;3.30;;;;;;;0.58;100.00;93925.84;2098541;28;20070;-88
2021/10/27 01:18:58;;;;;;;4.03;2.90;;;;;;;0.58;100.00;93925.84;2109379;28;20532;-92
2021/10/27 01:20:00;;;;;;;4.72;2.80;;;;;;;0.56;100.00;93920.13;2107006;28;20024;-90
2021/10/27 01:21:01;;;;;;;4.15;2.83;;;;;;;0.38;100.00;93912.47;2098518;28;20032;-88
2021/10/27 01:22:02;;;;;;;3.80;3.28;;;;;;;0.41;100.00;93917.09;2098529;28;20024;-88
2021/10/27 01:23:03;;;;;;;4.55;3.03;;;;;;;0.47;100.00;93923.66;2101054;28;20091;-90
2021/10/27 01:24:04;;;;;;;4.03;3.00;;;;;;;0.47;100.00;93915.75;2106995;28;20027;-89
2021/10/27 01:25:10;;;;;;;3.10;2.80;;;;;;;0.51;100.00;93915.88;2106795;28;20024;-88
2021/10/27 01:26:11;;;;;;;4.45;3.20;;;;;;;0.48;100.00;93912.06;2116182;27;20028;-94
2021/10/27 01:27:12;;;;;;;3.25;3.03;;;;;;;0.49;100.00;93916.22;2107025;28;20031;-91
2021/10/27 01:28:13;;;;;;;4.45;2.80;;;;;;;0.47;100.00;93915.00;2115803;28;20032;-86
2021/10/27 01:29:14;;;;;;;4.93;3.53;;;;;;;0.44;100.00;93911.19;2107158;28;20468;-87
2021/10/27 01:30:20;;;;;;;3.40;3.10;;;;;;;0.48;100.00;93912.06;2107064;28;20391;-88
2021/10/27 01:31:22;;;;;;;3.25;2.92;;;;;;;0.37;100.00;93905.69;2105030;28;20032;-87
2021/10/27 01:32:26;;;;;;;4.97;3.13;;;;;;;0.34;100.00;93902.97;2109465;28;20039;-86
2021/10/27 01:33:27;;;;;;;5.43;3.00;;;;;;;0.37;100.00;93900.44;2113794;28;20031;-87
2021/10/27 01:34:28;;;;;;;3.95;2.92;;;;;;;0.37;100.00;93894.41;2123707;27;20031;-90
2021/10/27 01:35:29;;;;;;;5.25;2.97;;;;;;;0.39;100.00;93900.09;2117103;28;20468;-86
2021/10/27 01:36:29;;;;;;;4.45;3.25;;;;;;;0.37;100.00;93895.19;2119769;28;20031;-85
2021/10/27 01:37:30;;;;;;;3.72;2.95;;;;;;;0.38;100.00;93901.97;2111013;28;20039;-85
2021/10/27 01:38:32;;;;;;;5.00;3.13;;;;;;;0.47;100.00;93899.22;2102006;28;20024;-90
2021/10/27 01:39:34;;;;;;;3.53;3.05;;;;;;;0.41;100.00;93896.06;2107431;28;20020;-92
2021/10/27 01:40:35;;;;;;;5.03;2.97;;;;;;;0.43;100.00;93896.47;2106681;28;20982;-87
2021/10/27 01:41:36;;;;;;;4.80;2.63;;;;;;;0.42;100.00;93888.94;2112128;28;20069;-89
2021/10/27 01:42:37;;;;;;;4.18;2.70;;;;;;;0.42;100.00;93892.31;2098379;28;20469;-88
2021/10/27 01:43:53;;;;;;;5.13;2.83;;;;;;;0.40;100.00;93889.28;2092807;28;20035;-90
2021/10/27 01:44:54;;;;;;;3.50;2.85;;;;;;;0.43;100.00;93890.44;2102489;28;20027;-88
2021/10/27 01:45:55;;;;;;;5.78;3.05;;;;;;;0.42;100.00;93884.44;2101837;28;20023;-92
2021/10/27 01:46:56;;;;;;;2.83;2.50;;;;;;;0.41;100.00;93885.53;2106721;28;20121;-90
2021/10/27 01:47:57;;;;;;;5.03;2.67;;;;;;;0.39;100.00;93881.69;2101994;28;20024;-90
2021/10/27 01:49:00;;;;;;;4.10;2.80;;;;;;;0.38;100.00;93878.31;2090195;28;20025;-90
2021/10/27 01:50:01;;;;;;;6.53;2.88;;;;;;;0.33;100.00;93883.03;2094756;28;20111;-88
2021/10/27 01:51:02;;;;;;;5.75;2.85;;;;;;;0.36;100.00;93882.38;2098619;28;20068;-87
2021/10/27 01:52:04;;;;;;;3.15;2.47;;;;;;;0.37;100.00;93881.28;2106693;28;20053;-87
2021/10/27 01:53:05;;;;;;;3.35;2.65;;;;;;;0.38;100.00;93875.66;2115115;27;20027;-87
2021/10/27 01:54:07;;;;;;;3.47;2.58;;;;;;;0.38;100.00;93880.94;2114326;28;20018;-87
2021/10/27 01:55:08;;;;;;;5.18;3.30;;;;;;;0.40;100.00;93876.13;2098408;28;20016;-89
2021/10/27 01:56:09;;;;;;;3.35;2.83;;;;;;;0.38;100.00;93878.31;2094040;28;20418;-87
2021/10/27 01:57:11;;;;;;;5.82;3.28;;;;;;;0.45;100.00;93875.13;2098169;28;20028;-89
2021/10/27 01:58:12;;;;;;;3.10;2.60;;;;;;;0.39;100.00;93874.56;2110799;28;20103;-87
2021/10/27 01:59:13;;;;;;;4.65;3.28;;;;;;;0.39;100.00;93881.69;2097663;28;20354;-87
2021/10/27 02:00:14;;;;;;;6.07;3.00;;;;;;;0.37;100.00;93878.66;2097999;28;20052;-89
2021/10/27 02:01:15;;;;;;;5.05;3.08;;;;;;;0.30;100.00;93871.31;2097811;28;20086;-88
2021/10/27 02:02:16;;;;;;;3.88;2.55;;;;;;;0.28;100.00;93878.78;2105915;28;20032;-88
2021/10/27 02:03:17;;;;;;;3.33;3.03;;;;;;;0.29;100.00;93874.28;2104909;28;20066;-90
2021/10/27 02:04:19;;;;;;;4.93;2.70;;;;;;;0.27;100.00;93882.50;2102315;28;20107;-88
2021/10/27 02:05:20;;;;;;;5.05;3.15;;;;;;;0.29;100.00;93879.53;2090248;28;20027;-89
2021/10/27 02:06:26;;;;;;;5.00;2.92;;;;;;;0.31;100.00;93875.50;2104377;27;20031;-90
2021/10/27 02:07:28;;;;;;;5.65;2.83;;;;;;;0.32;100.00;93877.00;2115021;28;20123;-88
2021/10/27 02:08:31;;;;;;;3.53;2.72;;;;;;;0.26;100.00;93870.44;2109923;28;20051;-89
2021/10/27 02:09:32;;;;;;;2.85;2.63;;;;;;;0.28;100.00;93870.88;2098310;28;20032;-87
2021/10/27 02:10:33;;;;;;;2.88;2.55;;;;;;;0.36;100.00;93880.50;2102835;28;20028;-87
2021/10/27 02:11:34;;;;;;;3.03;2.65;;;;;;;0.38;100.00;93880.16;2115103;28;20023;-91
2021/10/27 02:12:40;;;;;;;9.00;2.97;;;;;;;0.38;100.00;93878.31;2114604;28;20023;-88
2021/10/27 02:13:41;;;;;;;3.78;2.92;;;;;;;0.30;100.00;93870.53;2114903;28;20170;-90
2021/10/27 02:14:41;;;;;;;4.10;2.88;;;;;;;0.25;100.00;93868.91;2103363;28;20466;-87
2021/10/27 02:15:43;;;;;;;4.15;3.10;;;;;;;0.18;100.00;93871.34;2106579;28;20020;-89
2021/10/27 02:16:44;;;;;;;3.25;2.63;;;;;;;0.22;100.00;93872.97;2123315;28;20139;-88
2021/10/27 02:17:45;;;;;;;3.03;2.67;;;;;;;0.27;100.00;93869.34;2123284;28;20023;-89
2021/10/27 02:18:46;;;;;;;2.92;2.58;;;;;;;0.30;100.00;93873.16;2101725;28;20052;-88
2021/10/27 02:19:47;;;;;;;3.88;2.90;;;;;;;0.36;100.00;93864.72;2098039;28;20021;-91
2021/10/27 02:20:48;;;;;;;5.43;3.00;;;;;;;0.30;100.00;93863.41;2103072;28;20446;-88
2021/10/27 02:21:49;;;;;;;5.15;3.00;;;;;;;0.29;100.00;93861.13;2114967;28;20015;-90
2021/10/27 02:22:50;;;;;;;3.95;2.90;;;;;;;0.20;100.00;93867.28;2101516;28;20032;-90
2021/10/27 02:23:51;;;;;;;5.40;3.25;;;;;;;0.15;100.00;93858.84;2089797;28;20498;-90
2021/10/27 02:24:52;;;;;;;2.95;2.50;;;;;;;0.19;100.00;93873.63;2098089;28;20143;-88
2021/10/27 02:25:53;;;;;;;5.53;2.55;;;;;;;0.24;100.00;93862.13;2100846;28;20032;-90
2021/10/27 02:26:54;;;;;;;3.15;2.80;;;;;;;0.23;100.00;93868.50;2106407;28;20020;-89
2021/10/27 02:27:55;;;;;;;3.70;2.88;;;;;;;0.11;100.00;93866.63;2106522;28;20096;-90
2021/10/27 02:28:57;;;;;;;3.20;2.65;;;;;;;0.07;100.00;93865.75;2110218;28;20077;-87
2021/10/27 02:29:58;;;;;;;3.13;2.85;;;;;;;0.15;100.00;93856.22;2106418;28;20028;-88
2021/10/27 02:30:58;;;;;;;3.13;2.83;;;;;;;0.21;100.00;93860.16;2102325;28;20103;-88
2021/10/27 02:32:01;;;;;;;4.30;3.33;;;;;;;0.23;100.00;93863.22;2106205;28;20028;-87
2021/10/27 02:33:03;;;;;;;3.05;2.75;;;;;;;0.18;100.00;93866.09;2106494;28;20035;-90
2021/10/27 02:34:04;;;;;;;3.05;2.75;;;;;;;0.16;100.00;93868.25;2093804;28;20043;-90
2021/10/27 02:35:06;;;;;;;3.03;2.45;;;;;;;0.14;100.00;93863.34;2098050;28;20024;-89
2021/10/27 02:36:07;;;;;;;3.33;2.72;;;;;;;0.12;100.00;93859.50;2106385;28;20059;-89
2021/10/27 02:37:08;;;;;;;4.18;2.58;;;;;;;0.20;100.00;93859.38;2106551;28;20062;-90
2021/10/27 02:38:10;;;;;;;2.90;2.50;;;;;;;0.18;100.00;93866.84;2106244;28;20016;-89
2021/10/27 02:39:11;;;;;;;4.85;2.70;;;;;;;0.19;100.00;93868.38;2106642;28;20024;-90
2021/10/27 02:40:14;;;;;;;4.13;2.70;;;;;;;0.15;100.00;93872.75;2102328;28;20097;-87
2021/10/27 02:41:15;;;;;;;5.55;3.03;;;;;;;0.11;100.00;93877.16;2103469;28;20066;-87
2021/10/27 02:42:16;;;;;;;4.68;2.63;;;;;;;0.17;100.00;93875.06;2098081;28;20032;-86
2021/10/27 02:43:17;;;;;;;2.92;2.42;;;;;;;0.18;100.00;93873.97;2098195;28;20501;-90
2021/10/27 02:44:18;;;;;;;2.83;2.50;;;;;;;0.14;100.00;93873.88;2096408;28;20020;-89
2021/10/27 02:45:20;;;;;;;3.20;2.53;;;;;;;0.09;100.00;93875.94;2098006;28;20108;-85
2021/10/27 02:46:21;;;;;;;4.95;3.00;;;;;;;0.07;100.00;93876.28;2101797;28;20392;-92
2021/10/27 02:47:22;;;;;;;3.28;2.42;;;;;;;0.06;100.00;93872.13;2114889;28;20042;-88
2021/10/27 02:48:22;;;;;;;4.95;3.13;;;;;;;0.11;100.00;93874.53;2106207;28;20024;-91
2021/10/27 02:49:23;;;;;;;2.60;2.20;;;;;;;0.12;100.00;93878.66;2100465;28;20485;-90
2021/10/27 02:50:25;;;;;;;3.22;2.47;;;;;;;-0.01;100.00;93871.91;2118696;28;20023;-87
2021/10/27 02:51:26;;;;;;;3.72;2.55;;;;;;;-0.01;100.00;93880.53;2115122;28;20131;-91
2021/10/27 02:52:26;;;;;;;3.70;2.50;;;;;;;-0.04;100.00;93883.09;2099571;28;20075;-88
2021/10/27 02:53:27;;;;;;;3.88;2.70;;;;;;;-0.03;100.00;93877.50;2098105;28;20050;-87
2021/10/27 02:54:28;;;;;;;4.05;2.50;;;;;;;-0.10;100.00;93879.88;2106494;28;20035;-88
2021/10/27 02:55:30;;;;;;;3.33;2.88;;;;;;;-0.12;100.00;93874.22;2114781;28;20103;-89
2021/10/27 02:56:31;;;;;;;3.90;2.40;;;;;;;-0.06;100.00;93872.88;2101576;28;20035;-90
2021/10/27 02:57:32;;;;;;;3.58;2.88;;;;;;;-0.04;100.00;93875.19;2106429;28;20020;-87
2021/10/27 02:58:33;;;;;;;3.22;2.78;;;;;;;-0.02;100.00;93871.13;2114298;28;21472;-90
2021/10/27 02:59:34;;;;;;;3.47;2.65;;;;;;;-0.03;100.00;93866.97;2114786;28;20482;-90
2021/10/27 03:00:35;;;;;;;5.22;2.80;;;;;;;-0.03;100.00;93866.22;2103449;28;20028;-87
2021/10/27 03:01:36;;;;;;;3.65;3.03;;;;;;;-0.04;100.00;93867.31;2097929;28;20108;-88
2021/10/27 03:02:38;;;;;;;5.93;3.05;;;;;;;-0.11;100.00;93875.75;2100449;28;20047;-89
2021/10/27 03:03:41;;;;;;;3.33;2.58;;;;;;;-0.11;100.00;93865.22;2098672;28;20111;-91
2021/10/27 03:04:42;;;;;;;3.63;2.70;;;;;;;-0.09;100.00;93875.41;2098054;28;20473;-89
2021/10/27 03:05:46;;;;;;;2.92;2.53;;;;;;;-0.03;100.00;93872.22;2106830;28;20020;-88
2021/10/27 03:06:47;;;;;;;3.00;2.53;;;;;;;0.00;100.00;93865.56;2106520;28;20020;-88
2021/10/27 03:07:50;;;;;;;4.20;3.08;;;;;;;0.04;100.00;93874.28;2122924;28;20046;-88
2021/10/27 03:08:52;;;;;;;3.72;2.67;;;;;;;0.02;100.00;93868.63;2114012;28;20059;-87
2021/10/27 03:09:53;;;;;;;5.65;2.58;;;;;;;-0.07;100.00;93873.22;2098153;28;20508;-89
2021/10/27 03:10:54;;;;;;;4.43;2.70;;;;;;;-0.20;100.00;93871.69;2106145;28;20028;-88
2021/10/27 03:11:56;;;;;;;4.20;2.30;;;;;;;-0.28;100.00;93871.47;2115936;28;20472;-89
2021/10/27 03:12:57;;;;;;;2.92;2.63;;;;;;;-0.32;100.00;93875.84;2112505;28;20376;-89
2021/10/27 03:13:58;;;;;;;3.67;2.40;;;;;;;-0.12;100.00;93868.97;2107994;28;20020;-91
2021/10/27 03:14:59;;;;;;;3.22;2.90;;;;;;;-0.11;100.00;93867.09;2102385;28;20048;-88
2021/10/27 03:16:00;;;;;;;3.85;2.80;;;;;;;-0.09;100.00;93876.19;2107688;28;20027;-89
2021/10/27 03:17:02;;;;;;;3.25;2.40;;;;;;;-0.05;100.00;93874.41;2091238;28;20072;-89
2021/10/27 03:18:03;;;;;;;5.10;2.90;;;;;;;-0.09;100.00;93868.31;2091193;28;20079;-87
2021/10/27 03:19:04;;;;;;;3.80;2.72;;;;;;;-0.09;100.00;93870.16;2102522;28;20503;-90
2021/10/27 03:20:06;;;;;;;3.03;2.75;;;;;;;-0.09;100.00;93872.78;2107672;28;20024;-88
2021/10/27 03:21:07;;;;;;;4.03;2.60;;;;;;;-0.11;100.00;93875.75;2104952;28;20054;-87
2021/10/27 03:22:08;;;;;;;4.28;2.75;;;;;;;-0.11;100.00;93875.75;2107897;28;20031;-88
2021/10/27 03:23:09;;;;;;;4.30;3.10;;;;;;;-0.16;100.00;93873.34;2104573;28;20114;-89
2021/10/27 03:24:10;;;;;;;3.00;2.25;;;;;;;-0.13;100.00;93871.91;2107727;28;20442;-87
2021/10/27 03:25:11;;;;;;;3.70;2.65;;;;;;;-0.14;100.00;93871.13;2110216;27;20028;-88
2021/10/27 03:26:12;;;;;;;4.82;3.20;;;;;;;-0.11;100.00;93877.59;2110407;28;20460;-88
2021/10/27 03:27:13;;;;;;;2.95;2.50;;;;;;;-0.12;100.00;93874.22;2107478;28;20023;-88
2021/10/27 03:28:14;;;;;;;4.95;3.40;;;;;;;-0.20;100.00;93877.72;2107809;28;20469;-87
2021/10/27 03:29:15;;;;;;;4.10;2.80;;;;;;;-0.15;100.00;93879.34;2107777;28;20024;-88
2021/10/27 03:30:16;;;;;;;3.72;3.10;;;;;;;-0.16;100.00;93875.97;2099285;28;20017;-88
2021/10/27 03:31:17;;;;;;;3.30;3.00;;;;;;;-0.13;100.00;93882.41;2099355;28;20066;-88
2021/10/27 03:32:18;;;;;;;3.28;2.97;;;;;;;-0.11;100.00;93885.47;2107702;28;20065;-91
2021/10/27 03:33:19;;;;;;;3.97;2.95;;;;;;;-0.12;100.00;93889.97;2107557;28;20488;-87
2021/10/27 03:34:20;;;;;;;3.03;2.70;;;;;;;-0.12;100.00;93892.59;2124461;27;20019;-87
2021/10/27 03:35:21;;;;;;;4.95;2.78;;;;;;;-0.10;100.00;93889.63;2107310;28;20507;-89
2021/10/27 03:36:23;;;;;;;3.92;3.10;;;;;;;-0.12;100.00;93887.34;2099565;28;20032;-90
2021/10/27 03:37:24;;;;;;;4.10;2.95;;;;;;;-0.14;100.00;93888.75;2107740;28;20117;-90
2021/10/27 03:38:25;;;;;;;3.90;3.13;;;;;;;-0.15;100.00;93889.84;2104466;28;20052;-89
2021/10/27 03:39:26;;;;;;;2.80;2.60;;;;;;;-0.15;100.00;93887.22;2094013;28;20067;-88
2021/10/27 03:40:27;;;;;;;3.20;2.75;;;;;;;-0.16;100.00;93889.09;2107490;28;20630;-88
2021/10/27 03:41:27;;;;;;;4.38;2.63;;;;;;;-0.15;100.00;93898.50;2107573;28;20031;-88
2021/10/27 03:42:28;;;;;;;4.45;2.42;;;;;;;-0.14;100.00;93892.16;2099272;28;20024;-89
2021/10/27 03:43:29;;;;;;;2.58;2.20;;;;;;;-0.18;100.00;93891.28;2108710;28;20020;-90
2021/10/27 03:44:30;;;;;;;7.90;2.28;;;;;;;-0.21;100.00;93894.56;2115912;28;20487;-89
2021/10/27 03:45:31;;;;;;;2.40;2.17;;;;;;;-0.23;100.00;93894.13;2107296;28;20031;-92
2021/10/27 03:46:32;;;;;;;2.78;2.33;;;;;;;-0.19;100.00;93891.59;2099340;28;20028;-88
2021/10/27 03:47:34;;;;;;;3.97;2.10;;;;;;;-0.20;100.00;93893.47;2108429;28;20024;-90
2021/10/27 03:48:35;;;;;;;4.18;2.47;;;;;;;-0.23;100.00;93890.72;2107494;28;20090;-92
2021/10/27 03:49:36;;;;;;;3.70;2.67;;;;;;;-0.27;100.00;93895.88;2106895;28;20053;-90
2021/10/27 03:50:37;;;;;;;3.15;2.28;;;;;;;-0.30;100.00;93892.06;2116094;28;20089;-87
2021/10/27 03:51:38;;;;;;;4.60;2.45;;;;;;;-0.26;100.00;93892.16;2107398;28;20071;-93
2021/10/27 03:52:44;;;;;;;3.67;2.40;;;;;;;-0.23;100.00;93885.47;2099098;28;20103;-89
2021/10/27 03:53:45;;;;;;;3.45;2.67;;;;;;;-0.23;100.00;93888.88;2107981;28;20027;-89
2021/10/27 03:54:46;;;;;;;5.90;2.67;;;;;;;-0.26;100.00;93895.56;2099168;28;20024;-89
2021/10/27 03:55:47;;;;;;;3.28;2.75;;;;;;;-0.28;100.00;93889.09;2099093;28;20025;-88
2021/10/27 03:56:48;;;;;;;4.65;3.03;;;;;;;-0.25;100.00;93896.31;2099216;28;20024;-90
2021/10/27 03:57:49;;;;;;;4.13;3.20;;;;;;;-0.23;100.00;93888.88;2097355;28;20025;-90
2021/10/27 03:58:50;;;;;;;3.33;2.85;;;;;;;-0.23;100.00;93891.50;2105981;28;20027;-88
2021/10/27 03:59:51;;;;;;;3.45;2.88;;;;;;;-0.28;100.00;93894.34;2116214;28;20020;-89
2021/10/27 04:00:52;;;;;;;4.43;3.20;;;;;;;-0.28;100.00;93891.72;2107282;28;20519;-88
2021/10/27 04:01:53;;;;;;;4.32;2.90;;;;;;;-0.26;100.00;93894.78;2098250;28;20025;-88
2021/10/27 04:02:54;;;;;;;2.65;2.45;;;;;;;-0.27;100.00;93896.63;2099135;28;20024;-91
2021/10/27 04:03:55;;;;;;;3.38;2.50;;;;;;;-0.27;100.00;93891.38;2107229;28;20358;-87
2021/10/27 04:05:00;;;;;;;3.17;2.50;;;;;;;-0.32;100.00;93885.59;2107458;28;20027;-89
2021/10/27 04:06:01;;;;;;;2.50;2.30;;;;;;;-0.42;100.00;93894.66;2107194;28;20020;-87
2021/10/27 04:07:03;;;;;;;5.05;2.50;;;;;;;-0.45;100.00;93902.41;2099282;28;20021;-90
2021/10/27 04:08:04;;;;;;;3.13;2.38;;;;;;;-0.38;100.00;93894.78;2099324;28;20016;-88
2021/10/27 04:09:06;;;;;;;3.17;2.63;;;;;;;-0.31;100.00;93890.53;2099594;28;20021;-87
2021/10/27 04:10:09;;;;;;;2.55;2.30;;;;;;;-0.24;100.00;93895.22;2098581;28;20485;-89
2021/10/27 04:11:10;;;;;;;2.55;2.30;;;;;;;-0.24;100.00;93895.22;2091333;28;20499;-87
2021/10/27 04:12:11;;;;;;;3.55;2.10;;;;;;;-0.24;100.00;93900.47;2099292;28;20024;-89
2021/10/27 04:13:14;;;;;;;4.35;2.78;;;;;;;-0.22;100.00;93889.63;2090749;28;20485;-89
2021/10/27 04:14:15;;;;;;;2.72;2.38;;;;;;;-0.23;100.00;93890.72;2099890;28;20024;-89
2021/10/27 04:15:16;;;;;;;3.65;2.55;;;;;;;-0.30;100.00;93893.91;2099206;28;20020;-90
2021/10/27 04:16:17;;;;;;;5.88;2.53;;;;;;;-0.29;100.00;93890.19;2107275;28;20436;-90
2021/10/27 04:17:18;;;;;;;4.38;2.13;;;;;;;-0.29;100.00;93890.94;2107253;28;20048;-88
2021/10/27 04:18:19;;;;;;;4.90;3.25;;;;;;;-0.23;100.00;93899.38;2091176;28;20029;-87
2021/10/27 04:19:20;;;;;;;8.15;2.25;;;;;;;-0.24;100.00;93904.97;2099240;28;20768;-87
2021/10/27 04:20:21;;;;;;;3.38;2.65;;;;;;;-0.26;100.00;93902.69;2090802;28;20032;-89
2021/10/27 04:21:22;;;;;;;3.75;2.70;;;;;;;-0.31;100.00;93902.88;2107096;28;20065;-88
2021/10/27 04:22:23;;;;;;;2.78;2.45;;;;;;;-0.27;100.00;93899.25;2106854;28;20020;-88
2021/10/27 04:23:24;;;;;;;2.75;2.15;;;;;;;-0.33;100.00;93899.81;2107351;28;20024;-91
2021/10/27 04:24:25;;;;;;;3.30;2.47;;;;;;;-0.34;100.00;93903.53;2114606;28;20387;-89
2021/10/27 04:25:26;;;;;;;3.38;2.42;;;;;;;-0.38;100.00;93908.69;2107330;28;20035;-90
2021/10/27 04:26:27;;;;;;;2.70;2.50;;;;;;;-0.42;100.00;93920.16;2114979;28;20024;-87
2021/10/27 04:27:29;;;;;;;2.47;2.28;;;;;;;-0.36;100.00;93910.97;2098942;28;20054;-92
2021/10/27 04:28:30;;;;;;;2.42;2.03;;;;;;;-0.37;100.00;93904.94;2115606;27;20030;-90
2021/10/27 04:29:30;;;;;;;3.83;2.67;;;;;;;-0.34;100.00;93909.56;2107767;28;20015;-91
2021/10/27 04:30:32;;;;;;;5.57;2.40;;;;;;;-0.37;100.00;93907.56;2098872;28;20055;-88
2021/10/27 04:31:33;;;;;;;4.40;2.58;;;;;;;-0.42;100.00;93905.16;2091520;28;20021;-91
2021/10/27 04:32:35;;;;;;;2.92;2.40;;;;;;;-0.44;100.00;93903.94;2090549;28;20053;-91
2021/10/27 04:33:36;;;;;;;2.92;2.65;;;;;;;-0.45;100.00;93907.66;2107405;28;20024;-89
2021/10/27 04:34:37;;;;;;;5.00;3.55;;;;;;;-0.39;100.00;93903.75;2106262;28;20114;-88
2021/10/27 04:35:38;;;;;;;2.47;2.05;;;;;;;-0.35;100.00;93901.97;2115716;28;20024;-88
2021/10/27 04:36:39;;;;;;;2.63;2.38;;;;;;;-0.30;100.00;93907.03;2116508;27;20059;-88
2021/10/27 04:37:42;;;;;;;4.57;2.28;;;;;;;-0.30;100.00;93904.41;2098594;28;20028;-89
2021/10/27 04:38:43;;;;;;;2.60;2.40;;;;;;;-0.34;100.00;93904.31;2090742;28;20103;-90
2021/10/27 04:39:44;;;;;;;2.95;2.38;;;;;;;-0.35;100.00;93907.25;2090561;28;20032;-88
2021/10/27 04:40:44;;;;;;;2.88;2.58;;;;;;;-0.40;100.00;93910.09;2097353;28;20023;-87
2021/10/27 04:41:45;;;;;;;3.72;2.22;;;;;;;-0.41;100.00;93905.94;2090686;28;20028;-87
2021/10/27 04:42:47;;;;;;;2.70;2.40;;;;;;;-0.36;100.00;93913.59;2106040;28;20026;-91
2021/10/27 04:43:48;;;;;;;2.88;2.50;;;;;;;-0.35;100.00;93910.66;2107211;28;20024;-87
2021/10/27 04:44:50;;;;;;;3.05;2.58;;;;;;;-0.34;100.00;93906.94;2098786;28;20024;-91
2021/10/27 04:45:51;;;;;;;4.47;2.20;;;;;;;-0.37;100.00;93918.06;2107288;28;20058;-90
2021/10/27 04:46:52;;;;;;;3.40;2.22;;;;;;;-0.37;100.00;93915.44;2099913;28;20024;-87
2021/10/27 04:47:53;;;;;;;3.42;2.45;;;;;;;-0.33;100.00;93911.09;2096054;28;20044;-87